This is the latest recevied weather packets stored in our database for station/object W2BP-13. If no packets are shown the sender has not sent any weather packets the latest 10 day(s).
| Time | Temp. | Humidity | Pressure | Rain* | Wind** | Luminosity | Snow |
|---|---|---|---|---|---|---|---|
| 1777970432 | 17.22° C | 69% | 1011.8 hPa | 0 mm | - | - | - |
| 1777969533 | 17.22° C | 68% | 1011.7 hPa | 0 mm | - | - | - |
| 1777968632 | 17.22° C | 66% | 1011.5 hPa | 0 mm | - | - | - |
| 1777967732 | 17.22° C | 66% | 1011.3 hPa | 0 mm | - | - | - |
| 1777966832 | 17.22° C | 66% | 1011.2 hPa | 0 mm | - | - | - |
| 1777965932 | 17.22° C | 67% | 1011.1 hPa | 0 mm | - | - | - |
| 1777965033 | 17.22° C | 67% | 1011.1 hPa | 0 mm | - | - | - |
| 1777964133 | 17.78° C | 66% | 1010.8 hPa | 0 mm | - | - | - |
| 1777963233 | 17.78° C | 65% | 1010.7 hPa | 0 mm | - | - | - |
| 1777962332 | 17.78° C | 63% | 1010.7 hPa | 0 mm | - | - | - |
| 1777961432 | 18.33° C | 63% | 1010.4 hPa | 0 mm | - | - | - |
| 1777960532 | 19.44° C | 55% | 1010.1 hPa | 0 mm | - | - | - |
| 1777959633 | 20° C | 54% | 1010.2 hPa | 0 mm | - | - | - |
| 1777958733 | 20° C | 52% | 1010.1 hPa | 0 mm | - | - | - |
| 1777957832 | 20° C | 52% | 1009.9 hPa | 0 mm | - | - | - |
| 1777956932 | 22.22° C | 44% | 1009.6 hPa | 0 mm | - | - | - |
| 1777956033 | 22.22° C | 41% | 1009.5 hPa | 0 mm | - | - | - |
| 1777955133 | 22.22° C | 41% | 1009.7 hPa | 0 mm | - | - | - |
| 1777954233 | 22.78° C | 39% | 1009.6 hPa | 0 mm | - | - | - |
| 1777953333 | 22.78° C | 40% | 1009.4 hPa | 0 mm | - | - | - |
| 1777952433 | 23.33° C | 39% | 1009.2 hPa | 0 mm | - | - | - |
| 1777951532 | 25° C | 33% | 1009.1 hPa | 0 mm | - | - | - |
| 1777950633 | 25.56° C | 33% | 1009.2 hPa | 0 mm | - | - | - |
| 1777949733 | 26.67° C | 29% | 1009.2 hPa | 0 mm | - | - | - |
| 1777948833 | 28.33° C | 25% | 1009.2 hPa | 0 mm | - | - | - |
* Rain latest hour (hover to see other rain measurements)
** Current wind speed in m/s (hover to see current wind gust speed)